Time;durP1;ratioP1;P1;durP2;ratioP2;P2;SDS_P1;SDS_P2;PMS_P1;PMS_P2;Temp;Humidity;BMP_temperature;BMP_pressure;BME280_temperature;BME280_humidity;BME280_pressure;Samples;Min_cycle;Max_cycle;Signal;HPM_P1;HPM_P2
2021/03/23 00:01:02;;;;;;;2.70;2.40;;;8.90;96.80;;;;;;2076748;28;20462;-79
2021/03/23 00:02:08;;;;;;;2.80;2.45;;;8.90;97.00;;;;;;2081895;28;20559;-80
2021/03/23 00:03:15;;;;;;;2.67;2.15;;;8.80;96.80;;;;;;2081853;28;20096;-80
2021/03/23 00:04:15;;;;;;;2.92;2.63;;;8.80;96.70;;;;;;2082427;28;20505;-78
2021/03/23 00:05:17;;;;;;;5.03;2.53;;;8.80;96.60;;;;;;2082257;28;20105;-78
2021/03/23 00:06:22;;;;;;;4.55;2.13;;;8.80;96.40;;;;;;2090729;28;20046;-78
2021/03/23 00:07:23;;;;;;;2.40;2.20;;;8.80;96.50;;;;;;2082313;28;20028;-78
2021/03/23 00:08:33;;;;;;;2.83;1.85;;;8.80;96.70;;;;;;2082393;28;20056;-79
2021/03/23 00:09:33;;;;;;;2.22;1.98;;;8.80;96.80;;;;;;2079611;28;20036;-78
2021/03/23 00:10:34;;;;;;;2.47;2.20;;;8.80;96.90;;;;;;2092543;28;20029;-79
2021/03/23 00:11:38;;;;;;;4.65;2.63;;;8.80;97.10;;;;;;2089746;28;20032;-79
2021/03/23 00:12:39;;;;;;;2.20;2.00;;;8.80;97.20;;;;;;2080106;28;20020;-79
2021/03/23 00:13:41;;;;;;;7.15;2.70;;;8.80;97.10;;;;;;2080870;28;20040;-78
2021/03/23 00:14:42;;;;;;;4.32;2.28;;;8.80;97.20;;;;;;2089396;28;20056;-78
2021/03/23 00:15:44;;;;;;;3.10;2.53;;;8.80;97.40;;;;;;2080835;28;20026;-78
2021/03/23 00:16:45;;;;;;;4.32;2.67;;;8.70;97.40;;;;;;2076981;28;20052;-78
2021/03/23 00:17:47;;;;;;;3.90;2.10;;;8.70;97.60;;;;;;2083553;28;20017;-78
2021/03/23 00:18:49;;;;;;;2.53;2.33;;;8.70;97.40;;;;;;2085197;28;20128;-79
2021/03/23 00:19:49;;;;;;;2.70;2.30;;;8.70;97.20;;;;;;2088593;28;20025;-78
2021/03/23 00:20:50;;;;;;;3.70;2.15;;;8.70;97.00;;;;;;2088466;28;20052;-78
2021/03/23 00:21:51;;;;;;;4.78;2.47;;;8.70;97.10;;;;;;2083739;28;20025;-78
2021/03/23 00:22:51;;;;;;;6.55;2.75;;;8.70;97.10;;;;;;2083340;28;20026;-80
2021/03/23 00:23:52;;;;;;;2.92;2.50;;;8.70;97.00;;;;;;2086724;28;20017;-81
2021/03/23 00:24:53;;;;;;;5.00;2.28;;;8.70;97.30;;;;;;2086465;28;20051;-82
2021/03/23 00:25:54;;;;;;;3.70;2.50;;;8.70;97.50;;;;;;2076520;28;20026;-81
2021/03/23 00:26:54;;;;;;;3.17;2.42;;;8.70;97.60;;;;;;2083507;28;20125;-80
2021/03/23 00:27:55;;;;;;;2.90;2.33;;;8.70;97.70;;;;;;2090002;28;20579;-81
2021/03/23 00:28:57;;;;;;;3.45;2.83;;;8.70;97.80;;;;;;2089727;28;20025;-80
2021/03/23 00:29:57;;;;;;;3.17;2.88;;;8.60;97.80;;;;;;2089750;28;20032;-82
2021/03/23 00:30:58;;;;;;;3.00;2.33;;;8.60;98.00;;;;;;2084097;28;20155;-80
2021/03/23 00:31:59;;;;;;;3.40;2.50;;;8.60;97.90;;;;;;2087445;28;20447;-81
2021/03/23 00:33:00;;;;;;;2.17;1.92;;;8.70;98.10;;;;;;2089905;28;20057;-81
2021/03/23 00:34:04;;;;;;;3.95;2.70;;;8.60;98.00;;;;;;2081396;28;20101;-81
2021/03/23 00:35:07;;;;;;;5.57;2.63;;;8.60;98.20;;;;;;2081195;28;20462;-80
2021/03/23 00:36:09;;;;;;;3.90;2.35;;;8.60;98.20;;;;;;2084892;28;20513;-79
2021/03/23 00:37:10;;;;;;;3.40;2.28;;;8.60;98.00;;;;;;2080018;28;20121;-80
2021/03/23 00:38:13;;;;;;;4.07;2.55;;;8.60;98.00;;;;;;2081197;28;20025;-81
2021/03/23 00:39:14;;;;;;;4.57;2.85;;;8.60;98.10;;;;;;2079752;28;20263;-80
2021/03/23 00:40:17;;;;;;;4.43;2.47;;;8.60;98.60;;;;;;2080830;28;20021;-81
2021/03/23 00:41:18;;;;;;;3.10;2.65;;;8.60;98.70;;;;;;2083562;28;20030;-80
2021/03/23 00:42:18;;;;;;;5.55;2.53;;;8.60;98.70;;;;;;2084441;28;20021;-80
2021/03/23 00:43:20;;;;;;;5.03;2.65;;;8.50;98.50;;;;;;2073585;28;20089;-81
2021/03/23 00:44:20;;;;;;;3.30;2.58;;;8.50;98.40;;;;;;2078736;28;20485;-81
2021/03/23 00:45:23;;;;;;;3.60;1.98;;;8.50;98.40;;;;;;2080653;28;20029;-80
2021/03/23 00:46:23;;;;;;;2.75;2.45;;;8.50;98.40;;;;;;2073548;28;20022;-83
2021/03/23 00:47:24;;;;;;;5.85;2.90;;;8.50;98.40;;;;;;2074692;28;20040;-80
2021/03/23 00:48:24;;;;;;;3.65;2.58;;;8.50;98.60;;;;;;2073930;28;20049;-81
2021/03/23 00:49:25;;;;;;;2.97;2.70;;;8.50;98.40;;;;;;2084435;28;20469;-80
2021/03/23 00:50:26;;;;;;;3.30;2.45;;;8.50;98.70;;;;;;2087498;28;20067;-81
2021/03/23 00:51:27;;;;;;;4.82;3.45;;;8.50;98.70;;;;;;2082543;28;20093;-80
2021/03/23 00:52:27;;;;;;;3.25;2.90;;;8.50;98.50;;;;;;2080920;28;20495;-79
2021/03/23 00:53:28;;;;;;;5.22;2.90;;;8.50;98.50;;;;;;2087869;28;20041;-78
2021/03/23 00:54:29;;;;;;;3.50;2.58;;;8.50;98.60;;;;;;2088535;28;20033;-80
2021/03/23 00:55:29;;;;;;;4.15;3.08;;;8.50;98.60;;;;;;2079598;28;20084;-81
2021/03/23 00:56:30;;;;;;;3.85;2.75;;;8.50;98.70;;;;;;2081379;28;20094;-79
2021/03/23 00:57:30;;;;;;;5.78;3.05;;;8.50;98.60;;;;;;2078692;28;20052;-79
2021/03/23 00:58:31;;;;;;;4.35;2.63;;;8.50;98.70;;;;;;2081524;28;20084;-80
2021/03/23 00:59:32;;;;;;;3.83;2.83;;;8.50;98.80;;;;;;2088778;28;20024;-80
2021/03/23 01:00:33;;;;;;;3.20;2.80;;;8.50;98.80;;;;;;2080784;28;20037;-78
2021/03/23 01:01:34;;;;;;;4.88;3.08;;;8.40;98.80;;;;;;2081654;28;20805;-79
2021/03/23 01:02:34;;;;;;;3.63;2.72;;;8.50;99.00;;;;;;2080849;28;20028;-78
2021/03/23 01:03:35;;;;;;;3.38;2.72;;;8.50;99.20;;;;;;2087070;28;20033;-78
2021/03/23 01:04:36;;;;;;;2.90;2.67;;;8.50;99.30;;;;;;2083109;28;20025;-79
2021/03/23 01:05:37;;;;;;;3.63;3.00;;;8.50;99.30;;;;;;2075420;28;20506;-78
2021/03/23 01:06:37;;;;;;;4.53;2.80;;;8.50;99.20;;;;;;2080939;28;20029;-80
2021/03/23 01:07:38;;;;;;;5.45;2.88;;;8.50;99.20;;;;;;2084009;28;20035;-79
2021/03/23 01:08:39;;;;;;;3.13;2.75;;;8.40;99.30;;;;;;2088000;28;20028;-79
2021/03/23 01:09:39;;;;;;;4.15;3.30;;;8.40;99.30;;;;;;2082737;28;20017;-80
2021/03/23 01:10:40;;;;;;;4.68;3.33;;;8.40;99.10;;;;;;2088226;28;20192;-80
2021/03/23 01:11:41;;;;;;;4.03;2.88;;;8.50;99.10;;;;;;2083562;28;20398;-80
2021/03/23 01:12:42;;;;;;;3.60;2.72;;;8.40;99.10;;;;;;2081348;28;20028;-80
2021/03/23 01:13:42;;;;;;;6.45;3.35;;;8.40;99.00;;;;;;2078756;28;20026;-80
2021/03/23 01:14:43;;;;;;;4.90;3.70;;;8.40;98.90;;;;;;2081120;28;20546;-79
2021/03/23 01:15:44;;;;;;;4.40;3.05;;;8.40;98.90;;;;;;2088647;28;20085;-80
2021/03/23 01:16:45;;;;;;;4.30;3.30;;;8.40;98.90;;;;;;2085832;28;20025;-78
2021/03/23 01:17:46;;;;;;;2.90;2.58;;;8.40;99.00;;;;;;2083357;28;20026;-78
2021/03/23 01:18:46;;;;;;;4.60;3.08;;;8.40;99.10;;;;;;2083159;28;20076;-80
2021/03/23 01:19:47;;;;;;;3.10;2.78;;;8.40;99.40;;;;;;2088858;28;20025;-78
2021/03/23 01:20:48;;;;;;;3.42;2.67;;;8.40;99.30;;;;;;2090854;28;20033;-79
2021/03/23 01:21:48;;;;;;;5.53;3.40;;;8.40;99.20;;;;;;2079748;28;20017;-78
2021/03/23 01:22:49;;;;;;;4.20;3.35;;;8.40;99.00;;;;;;2079932;28;20108;-78
2021/03/23 01:23:50;;;;;;;2.88;2.67;;;8.40;98.90;;;;;;2072224;28;20521;-78
2021/03/23 01:24:50;;;;;;;5.47;3.33;;;8.40;99.00;;;;;;2075988;28;20036;-78
2021/03/23 01:25:51;;;;;;;3.80;3.42;;;8.40;99.30;;;;;;2084454;28;20021;-78
2021/03/23 01:26:52;;;;;;;3.80;2.97;;;8.40;99.30;;;;;;2084545;28;20047;-78
2021/03/23 01:27:53;;;;;;;4.38;3.17;;;8.40;99.50;;;;;;2083414;28;20123;-78
2021/03/23 01:28:54;;;;;;;3.75;2.83;;;8.40;99.60;;;;;;2076195;28;20027;-79
2021/03/23 01:29:54;;;;;;;5.85;4.43;;;8.40;99.40;;;;;;2079151;28;20033;-78
2021/03/23 01:30:55;;;;;;;4.70;3.97;;;8.40;99.20;;;;;;2079559;28;20025;-78
2021/03/23 01:31:57;;;;;;;3.10;2.78;;;8.40;99.00;;;;;;2084888;28;20026;-78
2021/03/23 01:32:58;;;;;;;4.60;3.38;;;8.40;98.90;;;;;;2084104;28;20120;-78
2021/03/23 01:33:58;;;;;;;4.75;3.22;;;8.40;98.90;;;;;;2077612;28;20201;-78
2021/03/23 01:34:59;;;;;;;4.90;3.17;;;8.40;99.20;;;;;;2079941;28;20139;-78
2021/03/23 01:36:00;;;;;;;5.53;3.80;;;8.40;99.40;;;;;;2082174;28;20370;-78
2021/03/23 01:37:00;;;;;;;4.22;3.35;;;8.40;99.70;;;;;;2090003;28;20564;-78
2021/03/23 01:38:02;;;;;;;3.90;3.20;;;8.40;99.60;;;;;;2091053;28;20107;-78
2021/03/23 01:39:03;;;;;;;3.45;2.97;;;8.40;99.70;;;;;;2082715;28;20036;-79
2021/03/23 01:40:05;;;;;;;5.93;3.45;;;8.40;99.70;;;;;;2073985;28;20018;-78
2021/03/23 01:41:05;;;;;;;7.75;4.10;;;8.40;99.70;;;;;;2082564;28;20325;-78
2021/03/23 01:42:07;;;;;;;3.50;3.17;;;8.40;99.90;;;;;;2085731;28;20028;-78
2021/03/23 01:43:26;;;;;;;3.50;3.20;;;8.40;99.90;;;;;;2080745;28;20022;-78
2021/03/23 01:44:26;;;;;;;4.57;3.70;;;8.40;99.90;;;;;;2081701;28;20504;-78
2021/03/23 01:45:32;;;;;;;4.07;3.40;;;8.30;99.90;;;;;;2081756;28;20036;-78
2021/03/23 01:46:39;;;;;;;7.03;4.55;;;8.30;99.90;;;;;;2088520;28;20456;-78
2021/03/23 01:47:40;;;;;;;5.63;4.45;;;8.30;99.90;;;;;;2077815;28;20018;-78
2021/03/23 01:48:40;;;;;;;4.65;3.28;;;8.30;99.90;;;;;;2075008;28;20024;-78
2021/03/23 01:49:46;;;;;;;3.40;3.10;;;8.40;99.90;;;;;;2079624;28;20068;-79
2021/03/23 01:50:53;;;;;;;4.43;3.42;;;8.30;99.90;;;;;;2074173;28;20032;-78
2021/03/23 01:52:01;;;;;;;5.38;4.55;;;8.40;99.90;;;;;;2080321;28;20124;-78
2021/03/23 01:53:12;;;;;;;6.28;3.67;;;8.40;99.90;;;;;;2081101;28;20032;-78
2021/03/23 01:54:17;;;;;;;4.53;3.42;;;8.40;99.90;;;;;;2077882;28;20474;-78
2021/03/23 01:55:19;;;;;;;4.60;3.42;;;8.30;99.90;;;;;;2087410;28;20100;-78
2021/03/23 01:56:20;;;;;;;4.82;4.30;;;8.30;99.90;;;;;;2081530;28;20049;-78
2021/03/23 01:57:21;;;;;;;3.90;2.80;;;8.30;99.90;;;;;;2079538;28;20424;-78
2021/03/23 01:58:22;;;;;;;6.72;3.97;;;8.30;99.90;;;;;;2079409;28;20048;-78
2021/03/23 01:59:23;;;;;;;6.38;4.07;;;8.30;99.90;;;;;;2076471;28;20025;-78
2021/03/23 02:00:25;;;;;;;4.68;3.80;;;8.30;99.90;;;;;;2074017;28;20026;-78
2021/03/23 02:01:26;;;;;;;4.85;3.65;;;8.30;99.90;;;;;;2089351;28;20021;-79
2021/03/23 02:02:29;;;;;;;6.03;3.70;;;8.30;99.90;;;;;;2088259;28;20087;-78
2021/03/23 02:03:30;;;;;;;5.90;3.60;;;8.40;99.90;;;;;;2082905;28;20446;-78
2021/03/23 02:04:31;;;;;;;6.00;3.63;;;8.40;99.90;;;;;;2082523;28;20026;-79
2021/03/23 02:05:37;;;;;;;3.97;3.30;;;8.40;99.90;;;;;;2089283;28;20115;-79
2021/03/23 02:06:45;;;;;;;4.80;4.20;;;8.40;99.90;;;;;;2082832;28;20057;-78
2021/03/23 02:07:46;;;;;;;4.82;4.22;;;8.30;99.90;;;;;;2085421;28;20456;-79
2021/03/23 02:08:46;;;;;;;3.95;3.15;;;8.30;99.90;;;;;;2086647;28;20021;-78
2021/03/23 02:09:51;;;;;;;7.97;4.32;;;8.40;99.90;;;;;;2091300;28;20021;-79
2021/03/23 02:10:53;;;;;;;6.03;4.57;;;8.40;99.90;;;;;;2090895;28;20157;-78
2021/03/23 02:12:00;;;;;;;4.47;4.03;;;8.30;99.90;;;;;;2081499;28;20024;-79
2021/03/23 02:13:04;;;;;;;5.85;3.35;;;8.30;99.90;;;;;;2083919;28;20020;-79
2021/03/23 02:14:05;;;;;;;6.13;4.50;;;8.40;99.90;;;;;;2082971;28;20025;-79
2021/03/23 02:15:06;;;;;;;5.35;3.67;;;8.40;99.90;;;;;;2081948;28;20072;-79
2021/03/23 02:16:07;;;;;;;3.20;2.90;;;8.30;99.90;;;;;;2084185;28;20063;-78
2021/03/23 02:17:29;;;;;;;6.68;5.25;;;8.30;99.90;;;;;;2087916;28;20067;-79
2021/03/23 02:18:30;;;;;;;7.40;6.15;;;8.40;99.90;;;;;;2086271;28;20016;-78
2021/03/23 02:19:30;;;;;;;8.27;6.10;;;8.30;99.90;;;;;;2092696;28;20100;-78
2021/03/23 02:20:31;;;;;;;6.72;6.10;;;8.30;99.90;;;;;;2090189;28;20028;-79
2021/03/23 02:21:32;;;;;;;7.85;6.40;;;8.30;99.90;;;;;;2090541;28;20025;-79
2021/03/23 02:22:44;;;;;;;9.23;6.47;;;8.30;99.90;;;;;;2091274;28;20021;-79
2021/03/23 02:23:47;;;;;;;8.25;6.00;;;8.30;99.90;;;;;;2080401;28;20041;-78
2021/03/23 02:24:49;;;;;;;10.52;6.65;;;8.30;99.90;;;;;;2084997;28;20128;-79
2021/03/23 02:25:49;;;;;;;10.52;6.28;;;8.30;99.90;;;;;;2087856;28;20020;-78
2021/03/23 02:26:50;;;;;;;7.40;6.45;;;8.30;99.90;;;;;;2081069;28;20362;-79
2021/03/23 02:27:52;;;;;;;7.20;5.40;;;8.30;99.90;;;;;;2089338;28;20021;-78
2021/03/23 02:28:59;;;;;;;7.68;5.70;;;8.30;99.90;;;;;;2082625;28;20055;-79
2021/03/23 02:30:00;;;;;;;8.98;6.90;;;8.30;99.90;;;;;;2084002;28;20027;-79
2021/03/23 02:31:01;;;;;;;9.68;6.97;;;8.30;99.90;;;;;;2090352;28;20062;-78
2021/03/23 02:32:02;;;;;;;6.88;5.20;;;8.30;99.90;;;;;;2087514;28;20469;-78
2021/03/23 02:33:03;;;;;;;6.07;4.90;;;8.30;99.90;;;;;;2082334;28;20056;-78
2021/03/23 02:34:10;;;;;;;10.02;6.60;;;8.30;99.90;;;;;;2081060;28;20017;-78
2021/03/23 02:35:11;;;;;;;11.75;7.30;;;8.30;99.90;;;;;;2075321;28;20030;-78
2021/03/23 02:36:12;;;;;;;7.85;6.90;;;8.30;99.90;;;;;;2086211;28;20153;-78
2021/03/23 02:37:13;;;;;;;13.00;7.68;;;8.30;99.90;;;;;;2085565;28;20040;-78
2021/03/23 02:38:14;;;;;;;8.95;7.22;;;8.30;99.90;;;;;;2082731;28;20088;-80
2021/03/23 02:39:17;;;;;;;8.73;7.45;;;8.30;99.90;;;;;;2089479;28;20612;-78
2021/03/23 02:40:18;;;;;;;11.18;8.07;;;8.30;99.90;;;;;;2081357;28;20108;-79
2021/03/23 02:41:19;;;;;;;8.52;7.60;;;8.30;99.90;;;;;;2074419;28;20053;-79
2021/03/23 02:42:20;;;;;;;7.60;6.20;;;8.30;99.90;;;;;;2080016;28;20048;-81
2021/03/23 02:43:20;;;;;;;4.65;4.22;;;8.30;99.90;;;;;;2088195;28;20029;-79
2021/03/23 02:44:21;;;;;;;7.50;6.75;;;8.30;99.90;;;;;;2085914;28;20480;-79
2021/03/23 02:45:22;;;;;;;8.35;6.80;;;8.30;99.90;;;;;;2072287;28;20461;-80
2021/03/23 02:46:23;;;;;;;9.75;8.13;;;8.30;99.90;;;;;;2081542;28;20027;-78
2021/03/23 02:47:24;;;;;;;8.15;7.30;;;8.30;99.90;;;;;;2082084;28;20021;-79
2021/03/23 02:48:25;;;;;;;9.15;7.63;;;8.30;99.90;;;;;;2072148;28;20025;-80
2021/03/23 02:49:25;;;;;;;14.18;9.02;;;8.30;99.90;;;;;;2085303;28;20033;-79
2021/03/23 02:50:26;;;;;;;12.25;7.38;;;8.30;99.90;;;;;;2079966;28;20112;-77
2021/03/23 02:51:27;;;;;;;10.73;9.13;;;8.30;99.90;;;;;;2081263;28;20061;-80
2021/03/23 02:52:28;;;;;;;10.43;8.65;;;8.30;99.90;;;;;;2082852;28;20029;-79
2021/03/23 02:53:29;;;;;;;10.93;8.82;;;8.30;99.90;;;;;;2080420;28;20127;-80
2021/03/23 02:54:30;;;;;;;9.52;7.28;;;8.30;99.90;;;;;;2084970;28;20432;-79
2021/03/23 02:55:30;;;;;;;9.68;8.68;;;8.30;99.90;;;;;;2081759;28;20088;-80
2021/03/23 02:56:31;;;;;;;10.35;8.88;;;8.30;99.90;;;;;;2077660;28;20482;-79
2021/03/23 02:57:32;;;;;;;11.75;9.10;;;8.30;99.90;;;;;;2082416;28;20425;-79
2021/03/23 02:58:32;;;;;;;13.70;9.15;;;8.30;99.90;;;;;;2082344;28;20026;-79
2021/03/23 02:59:33;;;;;;;10.75;9.25;;;8.30;99.90;;;;;;2079690;28;20026;-78
2021/03/23 03:00:34;;;;;;;10.65;9.07;;;8.30;99.90;;;;;;2090657;28;20024;-79
2021/03/23 03:01:35;;;;;;;8.15;7.38;;;8.30;99.90;;;;;;2089532;28;20036;-79
2021/03/23 03:02:35;;;;;;;14.48;9.70;;;8.30;99.90;;;;;;2077082;28;20180;-80
2021/03/23 03:03:37;;;;;;;17.80;9.02;;;8.40;99.90;;;;;;2092093;28;20021;-79
2021/03/23 03:04:39;;;;;;;11.48;9.10;;;8.40;99.90;;;;;;2086382;28;20022;-79
2021/03/23 03:05:40;;;;;;;15.57;9.63;;;8.40;99.90;;;;;;2081215;28;20029;-78
2021/03/23 03:06:41;;;;;;;11.90;10.65;;;8.30;99.90;;;;;;2080127;28;20080;-79
2021/03/23 03:07:42;;;;;;;11.00;8.93;;;8.40;99.90;;;;;;2077719;28;20033;-79
2021/03/23 03:08:43;;;;;;;12.48;10.80;;;8.40;99.90;;;;;;2083419;28;20569;-78
2021/03/23 03:09:44;;;;;;;14.65;12.45;;;8.40;99.90;;;;;;2084027;28;20022;-79
2021/03/23 03:10:44;;;;;;;13.57;11.57;;;8.40;99.90;;;;;;2075206;28;20032;-79
2021/03/23 03:11:45;;;;;;;12.75;11.40;;;8.30;99.90;;;;;;2082699;28;20036;-79
2021/03/23 03:12:46;;;;;;;14.57;12.15;;;8.30;99.90;;;;;;2077236;28;20032;-79
2021/03/23 03:13:46;;;;;;;15.68;13.50;;;8.40;99.90;;;;;;2077607;28;20025;-78
2021/03/23 03:14:47;;;;;;;16.05;11.20;;;8.30;99.90;;;;;;2078594;28;20377;-79
2021/03/23 03:15:50;;;;;;;14.73;12.13;;;8.30;99.90;;;;;;2088335;28;20048;-80
2021/03/23 03:16:51;;;;;;;15.88;12.55;;;8.30;99.90;;;;;;2088732;28;20560;-79
2021/03/23 03:17:52;;;;;;;15.55;13.45;;;8.30;99.90;;;;;;2084636;28;20026;-80
2021/03/23 03:18:53;;;;;;;17.90;13.10;;;8.30;99.90;;;;;;2083164;28;20040;-79
2021/03/23 03:19:53;;;;;;;17.70;14.13;;;8.30;99.90;;;;;;2088607;28;20021;-79
2021/03/23 03:20:57;;;;;;;17.67;14.45;;;8.30;99.90;;;;;;2083965;28;20022;-79
2021/03/23 03:21:58;;;;;;;17.08;14.43;;;8.30;99.90;;;;;;2087982;28;20013;-79
2021/03/23 03:22:58;;;;;;;15.50;13.75;;;8.30;99.90;;;;;;2089350;28;20111;-79
2021/03/23 03:23:59;;;;;;;16.13;14.40;;;8.30;99.90;;;;;;2082316;28;20032;-79
2021/03/23 03:24:59;;;;;;;18.20;14.23;;;8.30;99.90;;;;;;2083629;28;20180;-79
2021/03/23 03:26:00;;;;;;;16.83;15.02;;;8.30;99.90;;;;;;2083736;28;20017;-79
2021/03/23 03:27:01;;;;;;;16.40;14.35;;;8.30;99.90;;;;;;2081062;28;20107;-79
2021/03/23 03:28:03;;;;;;;16.00;14.30;;;8.30;99.90;;;;;;2080532;28;20183;-80
2021/03/23 03:29:04;;;;;;;18.45;14.55;;;8.30;99.90;;;;;;2091883;28;20112;-79
2021/03/23 03:30:11;;;;;;;20.85;15.60;;;8.30;99.90;;;;;;2088028;28;20380;-80
2021/03/23 03:31:11;;;;;;;17.10;15.30;;;8.30;99.90;;;;;;2083591;28;20025;-79
2021/03/23 03:32:12;;;;;;;17.27;15.32;;;8.30;99.90;;;;;;2088424;28;20024;-80
2021/03/23 03:33:16;;;;;;;17.17;15.38;;;8.30;99.90;;;;;;2091919;28;20025;-79
2021/03/23 03:34:16;;;;;;;20.70;16.58;;;8.30;99.90;;;;;;2082632;28;20068;-80
2021/03/23 03:35:18;;;;;;;18.98;15.55;;;8.30;99.90;;;;;;2081166;28;20022;-80
2021/03/23 03:36:21;;;;;;;21.00;16.20;;;8.30;99.90;;;;;;2080021;28;20030;-79
2021/03/23 03:37:22;;;;;;;18.30;15.98;;;8.30;99.90;;;;;;2075987;28;20145;-79
2021/03/23 03:38:25;;;;;;;19.40;16.77;;;8.30;99.90;;;;;;2086568;28;20025;-79
2021/03/23 03:39:26;;;;;;;17.80;15.90;;;8.30;99.90;;;;;;2083562;28;20029;-80
2021/03/23 03:40:37;;;;;;;17.95;15.27;;;8.30;99.90;;;;;;2076433;28;20036;-79
2021/03/23 03:41:38;;;;;;;17.27;15.45;;;8.30;99.90;;;;;;2079776;28;20155;-79
2021/03/23 03:42:38;;;;;;;19.05;16.15;;;8.30;99.90;;;;;;2076349;28;20072;-80
2021/03/23 03:43:40;;;;;;;19.23;16.48;;;8.30;99.90;;;;;;2076287;28;20029;-79
2021/03/23 03:44:40;;;;;;;19.50;15.98;;;8.30;99.90;;;;;;2083593;28;20025;-79
2021/03/23 03:45:41;;;;;;;19.70;15.77;;;8.30;99.90;;;;;;2088999;28;20021;-79
2021/03/23 03:46:42;;;;;;;19.98;15.85;;;8.30;99.90;;;;;;2089279;28;20018;-79
2021/03/23 03:47:43;;;;;;;20.05;16.63;;;8.30;99.90;;;;;;2086507;28;20025;-79
2021/03/23 03:48:44;;;;;;;19.08;15.90;;;8.30;99.90;;;;;;2084785;28;20030;-79
2021/03/23 03:49:46;;;;;;;18.98;16.98;;;8.30;99.90;;;;;;2089685;28;20013;-79
2021/03/23 03:50:47;;;;;;;19.13;16.80;;;8.30;99.90;;;;;;2093468;28;20025;-80
2021/03/23 03:51:48;;;;;;;20.05;16.65;;;8.30;99.90;;;;;;2089894;28;20140;-80
2021/03/23 03:52:49;;;;;;;19.13;16.40;;;8.30;99.90;;;;;;2082789;28;20049;-79
2021/03/23 03:53:50;;;;;;;17.88;15.98;;;8.30;99.90;;;;;;2087476;28;20018;-79
2021/03/23 03:54:50;;;;;;;19.73;16.98;;;8.30;99.90;;;;;;2082941;28;20022;-78
2021/03/23 03:55:52;;;;;;;21.70;17.50;;;8.30;99.90;;;;;;2092916;28;20017;-80
2021/03/23 03:56:53;;;;;;;20.17;16.48;;;8.40;99.90;;;;;;2092479;28;20017;-79
2021/03/23 03:57:53;;;;;;;19.05;17.05;;;8.30;99.90;;;;;;2085005;28;20026;-80
2021/03/23 03:58:56;;;;;;;20.85;17.88;;;8.30;99.90;;;;;;2081440;28;20049;-79
2021/03/23 03:59:56;;;;;;;20.73;16.63;;;8.30;99.90;;;;;;2082459;28;20041;-80
2021/03/23 04:00:57;;;;;;;19.55;16.65;;;8.30;99.90;;;;;;2092208;28;20025;-80
2021/03/23 04:01:58;;;;;;;18.38;15.52;;;8.30;99.90;;;;;;2090373;28;20048;-80
2021/03/23 04:03:00;;;;;;;17.42;15.68;;;8.40;99.90;;;;;;2084526;28;20036;-81
2021/03/23 04:04:00;;;;;;;18.20;16.00;;;8.30;99.90;;;;;;2091223;28;20025;-81
2021/03/23 04:05:02;;;;;;;19.08;16.92;;;8.40;99.90;;;;;;2082438;28;20028;-80
2021/03/23 04:06:02;;;;;;;19.42;16.90;;;8.40;99.90;;;;;;2088050;28;20384;-80
2021/03/23 04:07:03;;;;;;;20.33;16.33;;;8.40;99.90;;;;;;2096278;28;20095;-80
2021/03/23 04:08:07;;;;;;;20.83;16.63;;;8.40;99.90;;;;;;2081748;28;20104;-80
2021/03/23 04:09:07;;;;;;;20.83;16.90;;;8.40;99.90;;;;;;2080257;28;20087;-81
2021/03/23 04:10:08;;;;;;;24.77;17.45;;;8.40;99.90;;;;;;2079760;28;20069;-81
2021/03/23 04:11:10;;;;;;;19.30;16.58;;;8.40;99.90;;;;;;2089741;28;20039;-80
2021/03/23 04:12:11;;;;;;;21.42;17.55;;;8.40;99.90;;;;;;2087035;28;20075;-81
2021/03/23 04:13:13;;;;;;;20.65;16.33;;;8.40;99.90;;;;;;2080865;28;20572;-81
2021/03/23 04:14:13;;;;;;;19.05;16.83;;;8.40;99.90;;;;;;2080737;28;20029;-81
2021/03/23 04:15:20;;;;;;;21.23;17.10;;;8.40;99.90;;;;;;2080918;28;20034;-80
2021/03/23 04:16:21;;;;;;;20.20;15.77;;;8.40;99.90;;;;;;2089232;28;20021;-81
2021/03/23 04:17:22;;;;;;;17.95;15.15;;;8.40;99.90;;;;;;2085190;28;20033;-82
2021/03/23 04:18:25;;;;;;;17.67;13.85;;;8.40;99.90;;;;;;2080475;28;20096;-81
2021/03/23 04:19:27;;;;;;;20.02;15.38;;;8.40;99.90;;;;;;2080060;28;20044;-81
2021/03/23 04:20:28;;;;;;;25.13;18.08;;;8.40;99.90;;;;;;2080623;28;20041;-80
2021/03/23 04:21:29;;;;;;;21.73;16.52;;;8.40;99.90;;;;;;2081199;28;20026;-81
2021/03/23 04:22:29;;;;;;;21.85;16.25;;;8.50;99.90;;;;;;2081208;28;20083;-80
2021/03/23 04:23:33;;;;;;;21.15;17.23;;;8.40;99.90;;;;;;2089680;28;20553;-79
2021/03/23 04:24:34;;;;;;;22.67;17.90;;;8.40;99.90;;;;;;2082348;28;20068;-81
2021/03/23 04:25:35;;;;;;;20.00;17.38;;;8.40;99.90;;;;;;2081652;28;20089;-82
2021/03/23 04:26:36;;;;;;;19.63;16.77;;;8.40;99.90;;;;;;2074513;28;20540;-82
2021/03/23 04:27:36;;;;;;;19.88;16.52;;;8.40;99.90;;;;;;2081523;28;20034;-81
2021/03/23 04:28:41;;;;;;;20.17;17.52;;;8.40;99.90;;;;;;2081546;28;20405;-81
2021/03/23 04:29:41;;;;;;;21.98;17.60;;;8.40;99.90;;;;;;2087289;28;20342;-80
2021/03/23 04:30:42;;;;;;;20.95;17.00;;;8.40;99.90;;;;;;2076308;28;20037;-81
2021/03/23 04:31:43;;;;;;;23.40;17.33;;;8.40;99.90;;;;;;2078558;28;20487;-81
2021/03/23 04:32:44;;;;;;;20.92;16.80;;;8.40;99.90;;;;;;2081586;28;20013;-81
2021/03/23 04:33:45;;;;;;;26.65;18.13;;;8.40;99.90;;;;;;2086955;28;20121;-81
2021/03/23 04:34:45;;;;;;;23.23;17.60;;;8.40;99.90;;;;;;2083724;28;20101;-81
2021/03/23 04:36:01;;;;;;;20.83;17.55;;;8.40;99.90;;;;;;2076444;28;20433;-81
2021/03/23 04:37:03;;;;;;;20.95;17.73;;;8.40;99.90;;;;;;2083780;28;20033;-81
2021/03/23 04:38:04;;;;;;;20.08;16.77;;;8.40;99.90;;;;;;2080594;28;20022;-81
2021/03/23 04:39:07;;;;;;;23.95;19.38;;;8.40;99.90;;;;;;2074633;28;20033;-81
2021/03/23 04:40:09;;;;;;;21.08;18.15;;;8.40;99.90;;;;;;2075198;28;20022;-81
2021/03/23 04:41:12;;;;;;;21.70;17.65;;;8.40;99.90;;;;;;2078505;28;20025;-80
2021/03/23 04:42:12;;;;;;;26.08;19.33;;;8.40;99.90;;;;;;2081294;28;20026;-81
2021/03/23 04:43:26;;;;;;;23.10;18.52;;;8.40;99.90;;;;;;2080362;28;20056;-81
2021/03/23 04:44:26;;;;;;;22.58;18.17;;;8.40;99.90;;;;;;2086889;28;20083;-81
2021/03/23 04:45:27;;;;;;;22.67;18.55;;;8.40;99.90;;;;;;2082121;28;20358;-81
2021/03/23 04:46:29;;;;;;;23.00;18.15;;;8.40;99.90;;;;;;2085260;28;20025;-81
2021/03/23 04:47:29;;;;;;;24.13;19.20;;;8.40;99.90;;;;;;2086041;28;20021;-81
2021/03/23 04:48:30;;;;;;;22.38;18.63;;;8.40;99.90;;;;;;2081130;28;20027;-80
2021/03/23 04:49:31;;;;;;;25.90;19.30;;;8.40;99.90;;;;;;2085584;28;20116;-81
2021/03/23 04:50:32;;;;;;;22.65;18.52;;;8.40;99.90;;;;;;2083501;28;20029;-81
2021/03/23 04:51:32;;;;;;;23.60;18.42;;;8.40;99.90;;;;;;2082372;28;20032;-82
2021/03/23 04:52:33;;;;;;;25.83;20.20;;;8.40;99.90;;;;;;2084758;28;20022;-82
2021/03/23 04:53:37;;;;;;;23.30;18.75;;;8.40;99.90;;;;;;2090002;28;20036;-81
2021/03/23 04:54:38;;;;;;;23.45;19.85;;;8.40;99.90;;;;;;2073913;28;20029;-81
2021/03/23 04:55:38;;;;;;;31.73;19.25;;;8.40;99.90;;;;;;2078005;28;20029;-81
2021/03/23 04:56:41;;;;;;;24.95;19.20;;;8.40;99.90;;;;;;2079034;28;20206;-82
2021/03/23 04:57:42;;;;;;;26.95;19.77;;;8.40;99.90;;;;;;2081474;28;20056;-81
2021/03/23 04:58:42;;;;;;;24.60;19.60;;;8.40;99.90;;;;;;2078820;28;20475;-82
2021/03/23 04:59:43;;;;;;;23.85;18.80;;;8.40;99.90;;;;;;2085540;28;20067;-82
2021/03/23 05:00:44;;;;;;;24.20;18.40;;;8.40;99.90;;;;;;2095687;28;20017;-81
2021/03/23 05:01:44;;;;;;;27.08;19.70;;;8.40;99.90;;;;;;2078490;28;20576;-82
2021/03/23 05:02:45;;;;;;;23.67;18.98;;;8.40;99.90;;;;;;2082197;28;20516;-82
2021/03/23 05:03:46;;;;;;;27.00;20.92;;;8.40;99.90;;;;;;2089423;28;20025;-81
2021/03/23 05:04:47;;;;;;;24.92;19.42;;;8.40;99.90;;;;;;2090391;28;20028;-81
2021/03/23 05:06:05;;;;;;;24.08;19.02;;;8.40;99.90;;;;;;2090515;28;20021;-81
2021/03/23 05:07:05;;;;;;;22.90;18.48;;;8.40;99.90;;;;;;2080959;28;20108;-79
2021/03/23 05:08:06;;;;;;;25.85;19.27;;;8.40;99.90;;;;;;2084554;28;20023;-81
2021/03/23 05:09:07;;;;;;;23.98;19.25;;;8.40;99.90;;;;;;2079645;28;20072;-81
2021/03/23 05:10:11;;;;;;;25.58;18.90;;;8.40;99.90;;;;;;2078125;28;20032;-81
2021/03/23 05:11:14;;;;;;;21.38;18.45;;;8.40;99.90;;;;;;2087905;28;20548;-81
2021/03/23 05:12:14;;;;;;;27.00;20.00;;;8.40;99.90;;;;;;2087310;28;20353;-80
2021/03/23 05:13:16;;;;;;;21.50;19.20;;;8.40;99.90;;;;;;2079228;28;20100;-80
2021/03/23 05:14:17;;;;;;;22.77;20.00;;;8.40;99.90;;;;;;2072114;28;20453;-81
2021/03/23 05:15:17;;;;;;;23.95;20.20;;;8.40;99.90;;;;;;2074888;28;20030;-80
2021/03/23 05:16:18;;;;;;;26.77;20.05;;;8.40;99.90;;;;;;2079513;28;20520;-81
2021/03/23 05:17:19;;;;;;;24.10;20.08;;;8.40;99.90;;;;;;2087060;28;20032;-80
2021/03/23 05:18:20;;;;;;;25.65;19.92;;;8.40;99.90;;;;;;2094043;28;20020;-81
2021/03/23 05:19:21;;;;;;;24.92;19.88;;;8.40;99.90;;;;;;2080525;28;20030;-80
2021/03/23 05:20:22;;;;;;;26.05;20.05;;;8.40;99.90;;;;;;2079327;28;20022;-80
2021/03/23 05:21:23;;;;;;;25.55;19.48;;;8.40;99.90;;;;;;2074245;28;20478;-80
2021/03/23 05:22:24;;;;;;;25.90;20.67;;;8.40;99.90;;;;;;2079363;28;20034;-80